sensor_id;sensor_type;location;lat;lon;timestamp;P1;durP1;ratioP1;P2;durP2;ratioP2
35877;SDS011;21982;49.804;24.072;2023-07-30T00:01:59;5.15;;;3.17;;
35877;SDS011;21982;49.804;24.072;2023-07-30T00:04:25;6.53;;;3.20;;
35877;SDS011;21982;49.804;24.072;2023-07-30T00:06:51;7.20;;;3.53;;
35877;SDS011;21982;49.804;24.072;2023-07-30T00:09:17;6.55;;;3.20;;
35877;SDS011;21982;49.804;24.072;2023-07-30T00:11:42;8.25;;;3.08;;
35877;SDS011;21982;49.804;24.072;2023-07-30T00:14:07;7.65;;;3.38;;
35877;SDS011;21982;49.804;24.072;2023-07-30T00:16:33;5.97;;;3.53;;
35877;SDS011;21982;49.804;24.072;2023-07-30T00:18:58;6.00;;;3.58;;
35877;SDS011;21982;49.804;24.072;2023-07-30T00:21:24;5.72;;;3.50;;
35877;SDS011;21982;49.804;24.072;2023-07-30T00:23:49;6.47;;;3.70;;
35877;SDS011;21982;49.804;24.072;2023-07-30T00:26:17;4.60;;;2.83;;
35877;SDS011;21982;49.804;24.072;2023-07-30T00:28:43;7.00;;;3.55;;
35877;SDS011;21982;49.804;24.072;2023-07-30T00:31:10;9.57;;;4.85;;
35877;SDS011;21982;49.804;24.072;2023-07-30T00:33:35;8.15;;;5.07;;
35877;SDS011;21982;49.804;24.072;2023-07-30T00:36:00;6.55;;;4.53;;
35877;SDS011;21982;49.804;24.072;2023-07-30T00:38:26;5.00;;;3.38;;
35877;SDS011;21982;49.804;24.072;2023-07-30T00:40:54;6.05;;;4.07;;
35877;SDS011;21982;49.804;24.072;2023-07-30T00:43:20;6.45;;;3.40;;
35877;SDS011;21982;49.804;24.072;2023-07-30T00:45:46;6.03;;;2.78;;
35877;SDS011;21982;49.804;24.072;2023-07-30T00:48:13;7.05;;;3.58;;
35877;SDS011;21982;49.804;24.072;2023-07-30T00:50:39;6.72;;;2.60;;
35877;SDS011;21982;49.804;24.072;2023-07-30T00:53:07;4.28;;;2.63;;
35877;SDS011;21982;49.804;24.072;2023-07-30T00:55:34;4.20;;;2.88;;
35877;SDS011;21982;49.804;24.072;2023-07-30T00:58:00;5.82;;;3.30;;
35877;SDS011;21982;49.804;24.072;2023-07-30T01:00:27;4.40;;;2.33;;
35877;SDS011;21982;49.804;24.072;2023-07-30T01:02:54;8.90;;;3.17;;
35877;SDS011;21982;49.804;24.072;2023-07-30T01:05:20;7.25;;;3.15;;
35877;SDS011;21982;49.804;24.072;2023-07-30T01:07:47;5.15;;;3.03;;
35877;SDS011;21982;49.804;24.072;2023-07-30T01:10:12;6.63;;;2.63;;
35877;SDS011;21982;49.804;24.072;2023-07-30T01:12:38;3.67;;;2.75;;
35877;SDS011;21982;49.804;24.072;2023-07-30T01:15:05;5.70;;;2.47;;
35877;SDS011;21982;49.804;24.072;2023-07-30T01:17:32;4.20;;;2.20;;
35877;SDS011;21982;49.804;24.072;2023-07-30T01:20:01;4.15;;;2.05;;
35877;SDS011;21982;49.804;24.072;2023-07-30T01:22:27;4.45;;;1.50;;
35877;SDS011;21982;49.804;24.072;2023-07-30T01:24:52;4.05;;;2.00;;
35877;SDS011;21982;49.804;24.072;2023-07-30T01:27:22;2.85;;;2.05;;
35877;SDS011;21982;49.804;24.072;2023-07-30T01:30:21;5.50;;;1.67;;
35877;SDS011;21982;49.804;24.072;2023-07-30T01:32:51;4.25;;;2.10;;
35877;SDS011;21982;49.804;24.072;2023-07-30T01:35:18;4.47;;;2.05;;
35877;SDS011;21982;49.804;24.072;2023-07-30T01:37:47;2.78;;;1.67;;
35877;SDS011;21982;49.804;24.072;2023-07-30T01:40:14;3.00;;;1.48;;
35877;SDS011;21982;49.804;24.072;2023-07-30T01:42:40;4.00;;;2.30;;
35877;SDS011;21982;49.804;24.072;2023-07-30T01:45:07;5.85;;;1.65;;
35877;SDS011;21982;49.804;24.072;2023-07-30T01:47:32;5.00;;;2.25;;
35877;SDS011;21982;49.804;24.072;2023-07-30T01:49:58;4.00;;;1.67;;
35877;SDS011;21982;49.804;24.072;2023-07-30T01:52:23;4.80;;;2.45;;
35877;SDS011;21982;49.804;24.072;2023-07-30T01:54:48;3.08;;;1.52;;
35877;SDS011;21982;49.804;24.072;2023-07-30T01:57:15;4.50;;;1.90;;
35877;SDS011;21982;49.804;24.072;2023-07-30T01:59:43;3.50;;;1.73;;
35877;SDS011;21982;49.804;24.072;2023-07-30T02:02:09;3.67;;;1.85;;
35877;SDS011;21982;49.804;24.072;2023-07-30T02:04:34;4.50;;;2.17;;
35877;SDS011;21982;49.804;24.072;2023-07-30T02:06:59;4.72;;;2.00;;
35877;SDS011;21982;49.804;24.072;2023-07-30T02:09:26;5.35;;;2.00;;
35877;SDS011;21982;49.804;24.072;2023-07-30T02:11:51;5.85;;;2.00;;
35877;SDS011;21982;49.804;24.072;2023-07-30T02:14:18;4.78;;;1.92;;
35877;SDS011;21982;49.804;24.072;2023-07-30T02:16:43;6.00;;;2.30;;
35877;SDS011;21982;49.804;24.072;2023-07-30T02:19:09;6.13;;;2.17;;
35877;SDS011;21982;49.804;24.072;2023-07-30T02:21:34;4.97;;;1.58;;
35877;SDS011;21982;49.804;24.072;2023-07-30T02:24:02;4.93;;;2.63;;
35877;SDS011;21982;49.804;24.072;2023-07-30T02:26:27;2.80;;;1.73;;
35877;SDS011;21982;49.804;24.072;2023-07-30T02:28:53;5.25;;;2.15;;
35877;SDS011;21982;49.804;24.072;2023-07-30T02:31:18;6.50;;;1.88;;
35877;SDS011;21982;49.804;24.072;2023-07-30T02:33:43;4.35;;;2.22;;
35877;SDS011;21982;49.804;24.072;2023-07-30T02:36:09;3.20;;;1.67;;
35877;SDS011;21982;49.804;24.072;2023-07-30T02:38:34;3.70;;;1.73;;
35877;SDS011;21982;49.804;24.072;2023-07-30T02:40:59;4.75;;;2.65;;
35877;SDS011;21982;49.804;24.072;2023-07-30T02:43:25;6.03;;;2.17;;
35877;SDS011;21982;49.804;24.072;2023-07-30T02:45:50;5.45;;;2.45;;
35877;SDS011;21982;49.804;24.072;2023-07-30T02:48:15;4.55;;;2.05;;
35877;SDS011;21982;49.804;24.072;2023-07-30T02:50:41;5.65;;;2.42;;
35877;SDS011;21982;49.804;24.072;2023-07-30T02:53:07;3.95;;;2.10;;
35877;SDS011;21982;49.804;24.072;2023-07-30T02:55:32;4.18;;;2.20;;
35877;SDS011;21982;49.804;24.072;2023-07-30T02:57:57;4.55;;;2.10;;
35877;SDS011;21982;49.804;24.072;2023-07-30T03:00:23;4.43;;;2.13;;
35877;SDS011;21982;49.804;24.072;2023-07-30T03:02:48;5.18;;;2.38;;
35877;SDS011;21982;49.804;24.072;2023-07-30T03:05:13;6.72;;;2.70;;
35877;SDS011;21982;49.804;24.072;2023-07-30T03:07:39;5.78;;;2.30;;
35877;SDS011;21982;49.804;24.072;2023-07-30T03:10:04;4.38;;;2.25;;
35877;SDS011;21982;49.804;24.072;2023-07-30T03:12:30;4.82;;;2.55;;
35877;SDS011;21982;49.804;24.072;2023-07-30T03:14:56;5.40;;;2.30;;
35877;SDS011;21982;49.804;24.072;2023-07-30T03:17:22;5.35;;;2.85;;
35877;SDS011;21982;49.804;24.072;2023-07-30T03:19:47;4.93;;;2.83;;
35877;SDS011;21982;49.804;24.072;2023-07-30T03:22:15;6.50;;;2.35;;
35877;SDS011;21982;49.804;24.072;2023-07-30T03:24:41;4.68;;;2.38;;
35877;SDS011;21982;49.804;24.072;2023-07-30T03:27:06;4.65;;;2.50;;
35877;SDS011;21982;49.804;24.072;2023-07-30T03:29:32;4.85;;;2.70;;
35877;SDS011;21982;49.804;24.072;2023-07-30T03:31:57;7.20;;;3.58;;
35877;SDS011;21982;49.804;24.072;2023-07-30T03:34:22;5.63;;;3.33;;
35877;SDS011;21982;49.804;24.072;2023-07-30T03:36:48;7.68;;;3.25;;
35877;SDS011;21982;49.804;24.072;2023-07-30T03:39:13;5.95;;;3.25;;
35877;SDS011;21982;49.804;24.072;2023-07-30T03:41:38;7.05;;;3.35;;
35877;SDS011;21982;49.804;24.072;2023-07-30T03:44:05;4.63;;;2.50;;
35877;SDS011;21982;49.804;24.072;2023-07-30T03:46:31;4.78;;;2.15;;
35877;SDS011;21982;49.804;24.072;2023-07-30T03:48:56;4.00;;;1.80;;
35877;SDS011;21982;49.804;24.072;2023-07-30T03:51:21;5.13;;;2.65;;
35877;SDS011;21982;49.804;24.072;2023-07-30T03:53:47;6.78;;;2.50;;
35877;SDS011;21982;49.804;24.072;2023-07-30T03:56:12;4.05;;;1.95;;
35877;SDS011;21982;49.804;24.072;2023-07-30T03:58:37;4.28;;;1.98;;
35877;SDS011;21982;49.804;24.072;2023-07-30T04:01:03;5.93;;;2.25;;
35877;SDS011;21982;49.804;24.072;2023-07-30T04:03:28;4.93;;;2.05;;
35877;SDS011;21982;49.804;24.072;2023-07-30T04:05:54;4.90;;;2.42;;
35877;SDS011;21982;49.804;24.072;2023-07-30T04:08:19;4.80;;;2.15;;
35877;SDS011;21982;49.804;24.072;2023-07-30T04:10:46;3.55;;;1.88;;
35877;SDS011;21982;49.804;24.072;2023-07-30T04:13:11;4.18;;;2.85;;
35877;SDS011;21982;49.804;24.072;2023-07-30T04:15:36;4.25;;;2.20;;
35877;SDS011;21982;49.804;24.072;2023-07-30T04:18:02;4.38;;;1.88;;
35877;SDS011;21982;49.804;24.072;2023-07-30T04:20:27;5.78;;;2.15;;
35877;SDS011;21982;49.804;24.072;2023-07-30T04:22:54;4.50;;;2.35;;
35877;SDS011;21982;49.804;24.072;2023-07-30T04:25:22;3.78;;;1.80;;
35877;SDS011;21982;49.804;24.072;2023-07-30T04:27:47;4.95;;;1.90;;
35877;SDS011;21982;49.804;24.072;2023-07-30T04:30:12;4.20;;;2.00;;
35877;SDS011;21982;49.804;24.072;2023-07-30T04:32:38;3.30;;;1.75;;
35877;SDS011;21982;49.804;24.072;2023-07-30T04:35:03;3.65;;;2.20;;
35877;SDS011;21982;49.804;24.072;2023-07-30T04:37:29;5.53;;;2.15;;
35877;SDS011;21982;49.804;24.072;2023-07-30T04:39:54;5.00;;;2.33;;
35877;SDS011;21982;49.804;24.072;2023-07-30T04:42:20;5.20;;;2.30;;
35877;SDS011;21982;49.804;24.072;2023-07-30T04:44:45;4.10;;;1.98;;
35877;SDS011;21982;49.804;24.072;2023-07-30T04:47:10;5.60;;;2.13;;
35877;SDS011;21982;49.804;24.072;2023-07-30T04:49:36;4.13;;;2.20;;
35877;SDS011;21982;49.804;24.072;2023-07-30T04:52:05;4.18;;;1.48;;
35877;SDS011;21982;49.804;24.072;2023-07-30T04:54:34;4.60;;;2.17;;
35877;SDS011;21982;49.804;24.072;2023-07-30T04:57:01;4.63;;;1.73;;
35877;SDS011;21982;49.804;24.072;2023-07-30T04:59:27;6.13;;;2.00;;
35877;SDS011;21982;49.804;24.072;2023-07-30T05:01:52;6.72;;;1.75;;
35877;SDS011;21982;49.804;24.072;2023-07-30T05:04:18;3.10;;;1.70;;
35877;SDS011;21982;49.804;24.072;2023-07-30T05:06:43;4.38;;;2.10;;
35877;SDS011;21982;49.804;24.072;2023-07-30T05:09:09;5.45;;;2.10;;
35877;SDS011;21982;49.804;24.072;2023-07-30T05:11:36;3.58;;;1.75;;
35877;SDS011;21982;49.804;24.072;2023-07-30T05:14:02;3.28;;;1.90;;
35877;SDS011;21982;49.804;24.072;2023-07-30T05:16:27;3.35;;;1.92;;
35877;SDS011;21982;49.804;24.072;2023-07-30T05:18:52;5.00;;;2.60;;
35877;SDS011;21982;49.804;24.072;2023-07-30T05:21:18;4.47;;;1.90;;
35877;SDS011;21982;49.804;24.072;2023-07-30T05:23:43;4.13;;;1.75;;
35877;SDS011;21982;49.804;24.072;2023-07-30T05:26:08;4.55;;;1.45;;
35877;SDS011;21982;49.804;24.072;2023-07-30T05:28:34;3.72;;;1.73;;
35877;SDS011;21982;49.804;24.072;2023-07-30T05:30:59;3.75;;;1.88;;
35877;SDS011;21982;49.804;24.072;2023-07-30T05:33:24;3.83;;;1.50;;
35877;SDS011;21982;49.804;24.072;2023-07-30T05:35:50;4.88;;;2.00;;
35877;SDS011;21982;49.804;24.072;2023-07-30T05:38:15;4.55;;;1.92;;
35877;SDS011;21982;49.804;24.072;2023-07-30T05:40:41;4.57;;;2.42;;
35877;SDS011;21982;49.804;24.072;2023-07-30T05:43:07;5.90;;;2.53;;
35877;SDS011;21982;49.804;24.072;2023-07-30T05:45:33;2.78;;;1.67;;
35877;SDS011;21982;49.804;24.072;2023-07-30T05:47:59;5.22;;;2.10;;
35877;SDS011;21982;49.804;24.072;2023-07-30T05:50:24;5.00;;;2.20;;
35877;SDS011;21982;49.804;24.072;2023-07-30T05:52:49;3.30;;;1.80;;
35877;SDS011;21982;49.804;24.072;2023-07-30T05:55:15;3.15;;;1.70;;
35877;SDS011;21982;49.804;24.072;2023-07-30T05:57:40;4.05;;;1.90;;
35877;SDS011;21982;49.804;24.072;2023-07-30T06:00:06;5.80;;;1.95;;
35877;SDS011;21982;49.804;24.072;2023-07-30T06:02:32;5.88;;;1.77;;
35877;SDS011;21982;49.804;24.072;2023-07-30T06:04:57;4.95;;;1.88;;
35877;SDS011;21982;49.804;24.072;2023-07-30T06:07:22;3.35;;;1.77;;
35877;SDS011;21982;49.804;24.072;2023-07-30T06:09:48;6.50;;;2.30;;
35877;SDS011;21982;49.804;24.072;2023-07-30T06:12:13;5.28;;;2.00;;
35877;SDS011;21982;49.804;24.072;2023-07-30T06:14:39;4.47;;;1.92;;
35877;SDS011;21982;49.804;24.072;2023-07-30T06:17:04;2.90;;;1.95;;
35877;SDS011;21982;49.804;24.072;2023-07-30T06:19:30;2.15;;;1.38;;
35877;SDS011;21982;49.804;24.072;2023-07-30T06:21:55;3.78;;;1.85;;
35877;SDS011;21982;49.804;24.072;2023-07-30T06:24:21;3.80;;;1.35;;
35877;SDS011;21982;49.804;24.072;2023-07-30T06:26:46;4.63;;;1.70;;
35877;SDS011;21982;49.804;24.072;2023-07-30T06:29:17;3.50;;;1.65;;
35877;SDS011;21982;49.804;24.072;2023-07-30T06:31:43;3.58;;;1.55;;
35877;SDS011;21982;49.804;24.072;2023-07-30T06:34:08;3.67;;;1.60;;
35877;SDS011;21982;49.804;24.072;2023-07-30T06:36:33;3.03;;;1.60;;
35877;SDS011;21982;49.804;24.072;2023-07-30T06:38:59;2.42;;;1.38;;
35877;SDS011;21982;49.804;24.072;2023-07-30T06:41:26;3.72;;;1.23;;
35877;SDS011;21982;49.804;24.072;2023-07-30T06:43:51;3.28;;;1.40;;
35877;SDS011;21982;49.804;24.072;2023-07-30T06:46:16;3.33;;;1.13;;
35877;SDS011;21982;49.804;24.072;2023-07-30T06:48:42;3.03;;;1.55;;
35877;SDS011;21982;49.804;24.072;2023-07-30T06:51:09;3.95;;;1.45;;
35877;SDS011;21982;49.804;24.072;2023-07-30T06:53:34;3.42;;;1.67;;
35877;SDS011;21982;49.804;24.072;2023-07-30T06:56:00;2.95;;;1.50;;
35877;SDS011;21982;49.804;24.072;2023-07-30T06:58:25;2.83;;;1.63;;
35877;SDS011;21982;49.804;24.072;2023-07-30T07:00:51;2.38;;;1.30;;
35877;SDS011;21982;49.804;24.072;2023-07-30T07:03:17;4.18;;;1.35;;
35877;SDS011;21982;49.804;24.072;2023-07-30T07:08:17;2.80;;;1.30;;
35877;SDS011;21982;49.804;24.072;2023-07-30T07:10:44;2.45;;;1.30;;
35877;SDS011;21982;49.804;24.072;2023-07-30T07:13:09;2.05;;;1.20;;
35877;SDS011;21982;49.804;24.072;2023-07-30T07:20:47;2.45;;;1.17;;
35877;SDS011;21982;49.804;24.072;2023-07-30T07:23:12;3.08;;;1.13;;
35877;SDS011;21982;49.804;24.072;2023-07-30T07:30:48;2.80;;;1.45;;
35877;SDS011;21982;49.804;24.072;2023-07-30T07:33:13;8.10;;;1.73;;
35877;SDS011;21982;49.804;24.072;2023-07-30T07:35:39;2.40;;;1.67;;
35877;SDS011;21982;49.804;24.072;2023-07-30T07:38:05;2.33;;;1.17;;
35877;SDS011;21982;49.804;24.072;2023-07-30T07:40:35;3.15;;;1.45;;
35877;SDS011;21982;49.804;24.072;2023-07-30T07:43:05;5.90;;;2.03;;
35877;SDS011;21982;49.804;24.072;2023-07-30T07:45:31;4.85;;;1.80;;
35877;SDS011;21982;49.804;24.072;2023-07-30T07:47:57;3.70;;;1.52;;
35877;SDS011;21982;49.804;24.072;2023-07-30T07:50:22;4.57;;;1.73;;
35877;SDS011;21982;49.804;24.072;2023-07-30T07:52:47;4.43;;;1.45;;
35877;SDS011;21982;49.804;24.072;2023-07-30T07:55:13;2.40;;;1.40;;
35877;SDS011;21982;49.804;24.072;2023-07-30T07:57:38;4.82;;;1.60;;
35877;SDS011;21982;49.804;24.072;2023-07-30T08:00:04;2.75;;;1.30;;
35877;SDS011;21982;49.804;24.072;2023-07-30T08:02:30;4.18;;;1.60;;
35877;SDS011;21982;49.804;24.072;2023-07-30T08:04:56;2.63;;;1.20;;
35877;SDS011;21982;49.804;24.072;2023-07-30T08:07:22;3.53;;;1.33;;
35877;SDS011;21982;49.804;24.072;2023-07-30T08:09:47;3.15;;;1.70;;
35877;SDS011;21982;49.804;24.072;2023-07-30T08:12:13;5.03;;;1.80;;
35877;SDS011;21982;49.804;24.072;2023-07-30T08:14:39;2.80;;;1.35;;
35877;SDS011;21982;49.804;24.072;2023-07-30T08:17:04;2.53;;;1.02;;
35877;SDS011;21982;49.804;24.072;2023-07-30T08:19:30;3.88;;;1.60;;
35877;SDS011;21982;49.804;24.072;2023-07-30T08:21:55;3.15;;;1.42;;
35877;SDS011;21982;49.804;24.072;2023-07-30T08:24:23;3.78;;;1.33;;
35877;SDS011;21982;49.804;24.072;2023-07-30T08:26:49;3.05;;;1.40;;
35877;SDS011;21982;49.804;24.072;2023-07-30T08:29:15;2.28;;;1.30;;
35877;SDS011;21982;49.804;24.072;2023-07-30T08:31:41;2.40;;;1.27;;
35877;SDS011;21982;49.804;24.072;2023-07-30T08:34:07;2.92;;;1.25;;
35877;SDS011;21982;49.804;24.072;2023-07-30T08:36:32;4.75;;;2.45;;
35877;SDS011;21982;49.804;24.072;2023-07-30T08:39:00;2.33;;;1.27;;
35877;SDS011;21982;49.804;24.072;2023-07-30T08:41:27;1.98;;;1.10;;
35877;SDS011;21982;49.804;24.072;2023-07-30T08:43:52;3.30;;;1.73;;
35877;SDS011;21982;49.804;24.072;2023-07-30T08:46:18;2.95;;;1.25;;
35877;SDS011;21982;49.804;24.072;2023-07-30T08:48:43;4.35;;;1.40;;
35877;SDS011;21982;49.804;24.072;2023-07-30T08:51:09;3.13;;;1.25;;
35877;SDS011;21982;49.804;24.072;2023-07-30T08:53:36;3.60;;;1.40;;
35877;SDS011;21982;49.804;24.072;2023-07-30T08:56:02;4.07;;;1.90;;
35877;SDS011;21982;49.804;24.072;2023-07-30T08:58:31;3.45;;;1.90;;
35877;SDS011;21982;49.804;24.072;2023-07-30T09:00:59;3.00;;;1.30;;
35877;SDS011;21982;49.804;24.072;2023-07-30T09:03:31;3.42;;;1.33;;
35877;SDS011;21982;49.804;24.072;2023-07-30T09:06:02;4.57;;;2.42;;
35877;SDS011;21982;49.804;24.072;2023-07-30T09:08:28;3.25;;;1.40;;
35877;SDS011;21982;49.804;24.072;2023-07-30T09:10:54;4.05;;;1.90;;
35877;SDS011;21982;49.804;24.072;2023-07-30T09:13:21;2.95;;;1.52;;
35877;SDS011;21982;49.804;24.072;2023-07-30T09:15:48;6.55;;;2.28;;
35877;SDS011;21982;49.804;24.072;2023-07-30T09:18:16;4.22;;;2.10;;
35877;SDS011;21982;49.804;24.072;2023-07-30T09:20:43;3.30;;;1.52;;
35877;SDS011;21982;49.804;24.072;2023-07-30T09:23:09;2.33;;;1.27;;
35877;SDS011;21982;49.804;24.072;2023-07-30T09:25:36;2.55;;;1.17;;
35877;SDS011;21982;49.804;24.072;2023-07-30T09:28:06;3.38;;;1.15;;
35877;SDS011;21982;49.804;24.072;2023-07-30T09:30:32;2.15;;;0.90;;
35877;SDS011;21982;49.804;24.072;2023-07-30T09:32:58;3.25;;;1.83;;
35877;SDS011;21982;49.804;24.072;2023-07-30T09:35:25;4.35;;;1.25;;
35877;SDS011;21982;49.804;24.072;2023-07-30T09:37:59;3.72;;;1.10;;
35877;SDS011;21982;49.804;24.072;2023-07-30T09:40:36;2.78;;;1.20;;
35877;SDS011;21982;49.804;24.072;2023-07-30T09:43:06;3.53;;;1.23;;
35877;SDS011;21982;49.804;24.072;2023-07-30T09:45:35;3.38;;;1.20;;
35877;SDS011;21982;49.804;24.072;2023-07-30T09:48:02;1.95;;;0.90;;
35877;SDS011;21982;49.804;24.072;2023-07-30T09:50:30;3.28;;;1.20;;
35877;SDS011;21982;49.804;24.072;2023-07-30T09:52:56;2.63;;;1.13;;
35877;SDS011;21982;49.804;24.072;2023-07-30T09:55:23;2.60;;;0.95;;
35877;SDS011;21982;49.804;24.072;2023-07-30T09:57:49;2.65;;;1.20;;
35877;SDS011;21982;49.804;24.072;2023-07-30T10:00:14;3.35;;;1.23;;
35877;SDS011;21982;49.804;24.072;2023-07-30T10:02:41;2.47;;;1.20;;
35877;SDS011;21982;49.804;24.072;2023-07-30T10:05:14;1.73;;;0.98;;
35877;SDS011;21982;49.804;24.072;2023-07-30T10:07:42;2.72;;;1.20;;
35877;SDS011;21982;49.804;24.072;2023-07-30T10:10:14;2.17;;;1.00;;
35877;SDS011;21982;49.804;24.072;2023-07-30T10:12:39;3.88;;;1.25;;
35877;SDS011;21982;49.804;24.072;2023-07-30T10:15:07;3.63;;;1.40;;
35877;SDS011;21982;49.804;24.072;2023-07-30T10:17:33;3.33;;;1.10;;
35877;SDS011;21982;49.804;24.072;2023-07-30T10:20:17;4.00;;;1.23;;
35877;SDS011;21982;49.804;24.072;2023-07-30T10:25:30;1.58;;;0.90;;
35877;SDS011;21982;49.804;24.072;2023-07-30T10:28:31;2.15;;;1.40;;
35877;SDS011;21982;49.804;24.072;2023-07-30T10:30:59;2.50;;;1.13;;
35877;SDS011;21982;49.804;24.072;2023-07-30T10:36:17;2.67;;;1.10;;
35877;SDS011;21982;49.804;24.072;2023-07-30T10:38:43;1.88;;;1.17;;
35877;SDS011;21982;49.804;24.072;2023-07-30T10:41:10;4.40;;;1.58;;
35877;SDS011;21982;49.804;24.072;2023-07-30T10:43:41;4.03;;;1.40;;
35877;SDS011;21982;49.804;24.072;2023-07-30T10:46:09;5.28;;;1.33;;
35877;SDS011;21982;49.804;24.072;2023-07-30T10:48:37;4.45;;;1.20;;
35877;SDS011;21982;49.804;24.072;2023-07-30T10:51:05;3.65;;;1.20;;
35877;SDS011;21982;49.804;24.072;2023-07-30T10:53:32;5.90;;;1.33;;
35877;SDS011;21982;49.804;24.072;2023-07-30T10:56:01;2.72;;;1.13;;
35877;SDS011;21982;49.804;24.072;2023-07-30T10:58:30;2.28;;;0.90;;
35877;SDS011;21982;49.804;24.072;2023-07-30T11:00:57;3.03;;;1.00;;
35877;SDS011;21982;49.804;24.072;2023-07-30T11:03:26;1.52;;;0.88;;
35877;SDS011;21982;49.804;24.072;2023-07-30T11:05:52;5.65;;;1.70;;
35877;SDS011;21982;49.804;24.072;2023-07-30T11:08:18;2.65;;;1.30;;
35877;SDS011;21982;49.804;24.072;2023-07-30T11:10:47;1.27;;;0.70;;
35877;SDS011;21982;49.804;24.072;2023-07-30T11:13:13;2.15;;;1.10;;
35877;SDS011;21982;49.804;24.072;2023-07-30T11:15:42;3.50;;;1.00;;
35877;SDS011;21982;49.804;24.072;2023-07-30T11:18:11;2.50;;;1.17;;
35877;SDS011;21982;49.804;24.072;2023-07-30T11:20:37;1.65;;;0.98;;
35877;SDS011;21982;49.804;24.072;2023-07-30T11:23:16;1.98;;;0.82;;
35877;SDS011;21982;49.804;24.072;2023-07-30T11:25:46;2.92;;;1.38;;
35877;SDS011;21982;49.804;24.072;2023-07-30T11:28:36;1.17;;;0.50;;
35877;SDS011;21982;49.804;24.072;2023-07-30T11:33:28;1.95;;;0.98;;
35877;SDS011;21982;49.804;24.072;2023-07-30T11:35:54;1.35;;;0.77;;
35877;SDS011;21982;49.804;24.072;2023-07-30T11:38:22;1.10;;;0.70;;
35877;SDS011;21982;49.804;24.072;2023-07-30T11:40:52;2.00;;;0.75;;
35877;SDS011;21982;49.804;24.072;2023-07-30T11:43:31;2.78;;;0.90;;
35877;SDS011;21982;49.804;24.072;2023-07-30T11:46:13;1.52;;;0.80;;
35877;SDS011;21982;49.804;24.072;2023-07-30T11:48:39;2.42;;;0.90;;
35877;SDS011;21982;49.804;24.072;2023-07-30T11:56:17;3.33;;;1.23;;
35877;SDS011;21982;49.804;24.072;2023-07-30T11:59:04;2.50;;;0.98;;
35877;SDS011;21982;49.804;24.072;2023-07-30T12:01:32;3.25;;;1.25;;
35877;SDS011;21982;49.804;24.072;2023-07-30T12:04:00;3.05;;;1.10;;
35877;SDS011;21982;49.804;24.072;2023-07-30T12:09:17;2.17;;;1.20;;
35877;SDS011;21982;49.804;24.072;2023-07-30T12:14:21;1.80;;;1.10;;
35877;SDS011;21982;49.804;24.072;2023-07-30T12:16:55;3.42;;;1.02;;
35877;SDS011;21982;49.804;24.072;2023-07-30T12:19:21;2.05;;;0.80;;
35877;SDS011;21982;49.804;24.072;2023-07-30T12:21:47;2.63;;;1.13;;
35877;SDS011;21982;49.804;24.072;2023-07-30T12:24:12;2.17;;;0.88;;
35877;SDS011;21982;49.804;24.072;2023-07-30T12:36:58;3.53;;;1.35;;
35877;SDS011;21982;49.804;24.072;2023-07-30T12:39:24;2.05;;;0.88;;
35877;SDS011;21982;49.804;24.072;2023-07-30T12:41:51;1.85;;;1.00;;
35877;SDS011;21982;49.804;24.072;2023-07-30T12:44:17;1.80;;;0.98;;
35877;SDS011;21982;49.804;24.072;2023-07-30T12:46:42;2.20;;;1.00;;
35877;SDS011;21982;49.804;24.072;2023-07-30T12:49:07;1.58;;;0.73;;
35877;SDS011;21982;49.804;24.072;2023-07-30T12:51:33;3.13;;;0.85;;
35877;SDS011;21982;49.804;24.072;2023-07-30T12:53:58;3.28;;;1.10;;
35877;SDS011;21982;49.804;24.072;2023-07-30T12:56:24;3.88;;;1.13;;
35877;SDS011;21982;49.804;24.072;2023-07-30T12:58:49;6.75;;;1.20;;
35877;SDS011;21982;49.804;24.072;2023-07-30T13:01:14;3.63;;;1.15;;
35877;SDS011;21982;49.804;24.072;2023-07-30T13:03:43;3.33;;;1.23;;
35877;SDS011;21982;49.804;24.072;2023-07-30T13:06:12;2.20;;;1.10;;
35877;SDS011;21982;49.804;24.072;2023-07-30T13:08:41;2.55;;;1.15;;
35877;SDS011;21982;49.804;24.072;2023-07-30T13:16:17;3.53;;;1.40;;
35877;SDS011;21982;49.804;24.072;2023-07-30T13:21:23;1.88;;;1.00;;
35877;SDS011;21982;49.804;24.072;2023-07-30T13:23:48;3.78;;;1.60;;
35877;SDS011;21982;49.804;24.072;2023-07-30T13:28:53;2.88;;;1.60;;
35877;SDS011;21982;49.804;24.072;2023-07-30T13:31:21;3.08;;;1.00;;
35877;SDS011;21982;49.804;24.072;2023-07-30T13:33:47;3.15;;;1.75;;
35877;SDS011;21982;49.804;24.072;2023-07-30T13:36:13;2.80;;;1.30;;
35877;SDS011;21982;49.804;24.072;2023-07-30T13:38:39;2.42;;;1.40;;
35877;SDS011;21982;49.804;24.072;2023-07-30T13:43:41;2.70;;;1.02;;
35877;SDS011;21982;49.804;24.072;2023-07-30T13:46:06;2.03;;;1.20;;
35877;SDS011;21982;49.804;24.072;2023-07-30T13:48:32;1.85;;;0.82;;
35877;SDS011;21982;49.804;24.072;2023-07-30T13:50:58;2.67;;;1.65;;
35877;SDS011;21982;49.804;24.072;2023-07-30T13:53:23;3.60;;;1.55;;
35877;SDS011;21982;49.804;24.072;2023-07-30T13:55:49;2.85;;;1.10;;
35877;SDS011;21982;49.804;24.072;2023-07-30T13:58:16;2.47;;;1.35;;
35877;SDS011;21982;49.804;24.072;2023-07-30T14:00:42;2.38;;;1.33;;
35877;SDS011;21982;49.804;24.072;2023-07-30T14:03:16;3.05;;;1.40;;
35877;SDS011;21982;49.804;24.072;2023-07-30T14:05:41;2.58;;;1.35;;
35877;SDS011;21982;49.804;24.072;2023-07-30T14:08:11;1.88;;;1.30;;
35877;SDS011;21982;49.804;24.072;2023-07-30T14:10:37;3.83;;;1.30;;
35877;SDS011;21982;49.804;24.072;2023-07-30T14:13:03;2.72;;;1.10;;
35877;SDS011;21982;49.804;24.072;2023-07-30T14:15:32;1.95;;;1.20;;
35877;SDS011;21982;49.804;24.072;2023-07-30T14:17:59;3.00;;;1.17;;
35877;SDS011;21982;49.804;24.072;2023-07-30T14:20:26;2.83;;;0.95;;
35877;SDS011;21982;49.804;24.072;2023-07-30T14:22:57;3.05;;;1.55;;
35877;SDS011;21982;49.804;24.072;2023-07-30T14:25:25;2.75;;;0.80;;
35877;SDS011;21982;49.804;24.072;2023-07-30T14:27:54;2.83;;;1.20;;
35877;SDS011;21982;49.804;24.072;2023-07-30T14:30:29;2.55;;;1.45;;
35877;SDS011;21982;49.804;24.072;2023-07-30T14:33:13;2.67;;;1.20;;
35877;SDS011;21982;49.804;24.072;2023-07-30T14:35:48;2.40;;;1.13;;
35877;SDS011;21982;49.804;24.072;2023-07-30T14:43:27;2.47;;;1.10;;
35877;SDS011;21982;49.804;24.072;2023-07-30T14:45:58;2.97;;;1.50;;
35877;SDS011;21982;49.804;24.072;2023-07-30T14:48:25;2.13;;;1.05;;
35877;SDS011;21982;49.804;24.072;2023-07-30T14:50:51;2.67;;;1.30;;
35877;SDS011;21982;49.804;24.072;2023-07-30T14:53:22;4.20;;;1.38;;
35877;SDS011;21982;49.804;24.072;2023-07-30T14:55:58;5.00;;;1.33;;
35877;SDS011;21982;49.804;24.072;2023-07-30T14:58:27;5.60;;;1.70;;
35877;SDS011;21982;49.804;24.072;2023-07-30T15:00:52;4.97;;;1.67;;
35877;SDS011;21982;49.804;24.072;2023-07-30T15:03:19;3.42;;;1.73;;
35877;SDS011;21982;49.804;24.072;2023-07-30T15:05:51;3.40;;;1.67;;
35877;SDS011;21982;49.804;24.072;2023-07-30T15:16:07;3.92;;;1.00;;
35877;SDS011;21982;49.804;24.072;2023-07-30T15:18:33;3.38;;;1.00;;
35877;SDS011;21982;49.804;24.072;2023-07-30T15:21:03;2.22;;;1.13;;
35877;SDS011;21982;49.804;24.072;2023-07-30T15:23:30;2.17;;;1.02;;
35877;SDS011;21982;49.804;24.072;2023-07-30T15:25:56;2.85;;;1.10;;
35877;SDS011;21982;49.804;24.072;2023-07-30T15:28:24;3.53;;;1.65;;
35877;SDS011;21982;49.804;24.072;2023-07-30T15:30:49;3.22;;;1.25;;
35877;SDS011;21982;49.804;24.072;2023-07-30T15:33:17;4.47;;;1.75;;
35877;SDS011;21982;49.804;24.072;2023-07-30T15:35:42;4.88;;;3.35;;
35877;SDS011;21982;49.804;24.072;2023-07-30T15:38:08;4.18;;;2.30;;
35877;SDS011;21982;49.804;24.072;2023-07-30T15:40:34;4.43;;;1.73;;